Kakariki — ZMKA — position and weather

sailwx.info

Track history (hours):
 
Tides and Currents Weather Stations Pressure Air Temp Water Temp Dewpoint Dewpoint Depression Visibility Wind Speed Wind Dir Waves Ship Positions

Kakariki

Last reported at 2014-Sep-19 11:00 UTC. Time now 2014-Sep-19 13:54 UTC.
Position S 40°42' E 176°42'.

Length 183 m; beam 32 m; draft 11 m.

Type: Ship (hazmat cat A). MMSI: 512000050.

Wind from 100 at 40 knots

Barometer 995.7 mb
Air temperature 12.0 ° C
Visibility: greater than 10.8 NM
Dewpoint 5.6 ° C

Date/timePositionNaut miles runAvg speedWind from/ knotsBaromVisibWave heightAir tempDewpointWater temp
2014-Sep-19 11:00S 40°42' E 176°42'6513.1 100 / 40995.710.8 12.0 5.6
2014-Sep-19 06:00S 39°48' E 177°30'232 9.1 030 / 5997.310.8 0.515.510.4
2014-Sep-18 04:33S 36°21' E 175°18'1313.0
2014-Sep-18 03:33S 36°17' E 175°03'1313.1
2014-Sep-18 02:33S 36°09' E 174°50'7 0.2
2014-Sep-17 00:06S 36°13' E 174°56'611.3
2014-Sep-16 23:33S 36°17' E 175°02'7 7.2
2014-Sep-16 22:33S 36°19' E 175°11'1211.6
2014-Sep-16 21:29S 36°23' E 175°25'1211.4
2014-Sep-16 20:26S 36°27' E 175°39'2 1.3
2014-Sep-16 19:08S 36°27' E 175°41'711.2
2014-Sep-16 18:32S 36°29' E 175°49'1 0.0
2014-Sep-15 05:16S 36°30' E 175°50'2613.8
2014-Sep-15 03:24S 36°21' E 175°20'1113.3
2014-Sep-15 02:33S 36°18' E 175°07'1612.8
2014-Sep-15 01:20S 36°09' E 174°51'1013.2
2014-Sep-15 00:33S 36°02' E 174°41'20 1.2
2014-Sep-14 07:33S 36°15' E 174°59'1212.2
2014-Sep-14 06:33S 36°19' E 175°14'2912.1
2014-Sep-14 04:11S 36°29' E 175°47'  
2014-Sep-10 18:00S 37°00' E 177°12'9812.3 090 / 101027.227.0 14.311.1
2014-Sep-10 10:03S 36°21' E 175°20'812.4
2014-Sep-10 09:22S 36°26' E 175°11'1112.9
2014-Sep-10 08:33S 36°34' E 175°02'1312.8
2014-Sep-10 07:33S 36°43' E 174°51'8 7.6
2014-Sep-10 06:32S 36°50' E 174°47'1 0.1
2014-Sep-09 19:08S 36°50' E 174°46'1 2.5
2014-Sep-09 18:34S 36°50' E 174°47'7 6.6
2014-Sep-09 17:34S 36°44' E 174°51'1110.6
2014-Sep-09 16:33S 36°36' E 174°58'7 7.5
2014-Sep-09 15:34S 36°28' E 175°00'9 9.1
2014-Sep-09 14:34S 36°20' E 174°57'1211.7
2014-Sep-09 13:34S 36°10' E 174°48'  
Track history (hours):
 
Tides and Currents Weather Stations Pressure Air Temp Water Temp Dewpoint Dewpoint Depression Visibility Wind Speed Wind Dir Waves Ship Positions

Kakariki

Last reported at 2014-Sep-19 11:00 UTC. Time now 2014-Sep-19 13:54 UTC.
Position S 40°42' E 176°42'.

Length 183 m; beam 32 m; draft 11 m.

Type: Ship (hazmat cat A). MMSI: 512000050.

Wind from 100 at 40 knots

Barometer 995.7 mb
Air temperature 12.0 ° C
Visibility: greater than 10.8 NM
Dewpoint 5.6 ° C

Date/timePositionNaut miles runAvg speedWind from/ knotsBaromVisibWave heightAir tempDewpointWater temp
2014-Sep-19 11:00S 40°42' E 176°42'6513.1 100 / 40995.710.8 12.0 5.6
2014-Sep-19 06:00S 39°48' E 177°30'232 9.1 030 / 5997.310.8 0.515.510.4
2014-Sep-18 04:33S 36°21' E 175°18'1313.0
2014-Sep-18 03:33S 36°17' E 175°03'1313.1
2014-Sep-18 02:33S 36°09' E 174°50'7 0.2
2014-Sep-17 00:06S 36°13' E 174°56'611.3
2014-Sep-16 23:33S 36°17' E 175°02'7 7.2
2014-Sep-16 22:33S 36°19' E 175°11'1211.6
2014-Sep-16 21:29S 36°23' E 175°25'1211.4
2014-Sep-16 20:26S 36°27' E 175°39'2 1.3
2014-Sep-16 19:08S 36°27' E 175°41'711.2
2014-Sep-16 18:32S 36°29' E 175°49'1 0.0
2014-Sep-15 05:16S 36°30' E 175°50'2613.8
2014-Sep-15 03:24S 36°21' E 175°20'1113.3
2014-Sep-15 02:33S 36°18' E 175°07'1612.8
2014-Sep-15 01:20S 36°09' E 174°51'1013.2
2014-Sep-15 00:33S 36°02' E 174°41'20 1.2
2014-Sep-14 07:33S 36°15' E 174°59'1212.2
2014-Sep-14 06:33S 36°19' E 175°14'2912.1
2014-Sep-14 04:11S 36°29' E 175°47'  
2014-Sep-10 18:00S 37°00' E 177°12'9812.3 090 / 101027.227.0 14.311.1
2014-Sep-10 10:03S 36°21' E 175°20'812.4
2014-Sep-10 09:22S 36°26' E 175°11'1112.9
2014-Sep-10 08:33S 36°34' E 175°02'1312.8
2014-Sep-10 07:33S 36°43' E 174°51'8 7.6
2014-Sep-10 06:32S 36°50' E 174°47'1 0.1
2014-Sep-09 19:08S 36°50' E 174°46'1 2.5
2014-Sep-09 18:34S 36°50' E 174°47'7 6.6
2014-Sep-09 17:34S 36°44' E 174°51'1110.6
2014-Sep-09 16:33S 36°36' E 174°58'7 7.5
2014-Sep-09 15:34S 36°28' E 175°00'9 9.1
2014-Sep-09 14:34S 36°20' E 174°57'1211.7
2014-Sep-09 13:34S 36°10' E 174°48'  

Dump ship's entire track history